Terminal Aerodrome Forecast
Issued by NWS Corpus Christi, TX

Home | Current Version | Previous Version | Text Only | Print | Product List | Glossary On
Versions: 1 2 3 4 5 6 7 8 9 10 11 12 13 14 15 16 17 18 19 20 21
000
FTUS44 KCRP 230522
TAFVCT
TAF
KVCT 230522Z 2306/2406 VRB03KT P6SM SKC
      TEMPO 2310/2312 6SM BR
     FM231800 03010KT P6SM SKC
     FM232300 09006KT P6SM SKC
     FM240200 VRB03KT P6SM SCT050=

USA.gov is the U.S. government's official web portal to all federal, state and local government web resources and services.